createdAt,value
2018-07-19T00:01:38.880Z,15.90
2018-07-19T00:04:07.268Z,15.90
2018-07-19T00:06:35.564Z,15.90
2018-07-19T00:09:05.654Z,15.80
2018-07-19T00:11:33.980Z,15.70
2018-07-19T00:14:02.724Z,15.70
2018-07-19T00:16:31.466Z,15.60
2018-07-19T00:18:59.888Z,15.50
2018-07-19T00:21:32.022Z,15.50
2018-07-19T00:24:00.367Z,15.40
2018-07-19T00:26:28.697Z,15.40
2018-07-19T00:28:57.020Z,15.40
2018-07-19T00:31:25.374Z,15.30
2018-07-19T00:33:53.830Z,15.30
2018-07-19T00:36:22.172Z,15.30
2018-07-19T00:38:50.494Z,15.30
2018-07-19T00:41:18.881Z,15.20
2018-07-19T00:43:47.288Z,15.20
2018-07-19T00:46:15.558Z,15.10
2018-07-19T00:48:50.915Z,15.10
2018-07-19T00:51:19.257Z,15.00
2018-07-19T00:53:47.713Z,15.00
2018-07-19T00:56:16.098Z,15.00
2018-07-19T00:58:44.419Z,14.90
2018-07-19T01:01:12.757Z,14.90
2018-07-19T01:03:41.099Z,14.90
2018-07-19T01:06:09.403Z,14.80
2018-07-19T01:08:37.854Z,14.80
2018-07-19T01:11:06.392Z,14.80
2018-07-19T01:13:34.781Z,14.80
2018-07-19T01:16:03.076Z,14.70
2018-07-19T01:18:31.382Z,14.70
2018-07-19T01:20:59.749Z,14.60
2018-07-19T01:23:28.079Z,14.60
2018-07-19T01:25:56.400Z,14.50
2018-07-19T01:28:24.735Z,14.50
2018-07-19T01:30:53.013Z,14.40
2018-07-19T01:33:21.379Z,14.40
2018-07-19T01:35:49.773Z,14.40
2018-07-19T01:38:18.060Z,14.30
2018-07-19T01:40:46.394Z,14.30
2018-07-19T01:43:14.739Z,14.20
2018-07-19T01:45:43.052Z,14.20
2018-07-19T01:48:11.600Z,14.10
2018-07-19T01:50:39.952Z,14.10
2018-07-19T01:53:08.259Z,14.10
2018-07-19T01:55:36.647Z,14.10
2018-07-19T01:58:04.941Z,14.10
2018-07-19T02:00:33.281Z,14.10
2018-07-19T02:03:01.636Z,14.00
2018-07-19T02:05:29.911Z,14.00
2018-07-19T02:07:58.196Z,13.90
2018-07-19T02:10:26.614Z,13.90
2018-07-19T02:12:54.916Z,13.90
2018-07-19T02:17:51.329Z,13.80
2018-07-19T02:20:19.882Z,13.80
2018-07-19T02:22:48.192Z,13.70
2018-07-19T02:25:16.574Z,13.70
2018-07-19T02:27:44.921Z,13.60
2018-07-19T02:30:13.222Z,13.70
2018-07-19T02:32:41.606Z,13.60
2018-07-19T02:35:09.902Z,13.60
2018-07-19T02:37:38.170Z,13.50
2018-07-19T02:40:06.488Z,13.50
2018-07-19T02:42:34.806Z,13.50
2018-07-19T02:45:03.117Z,13.50
2018-07-19T02:47:31.463Z,13.50
2018-07-19T02:49:59.747Z,13.50
2018-07-19T02:52:28.048Z,13.50
2018-07-19T02:54:56.349Z,13.50
2018-07-19T02:57:24.667Z,13.50
2018-07-19T02:59:53.184Z,13.50
2018-07-19T03:02:21.465Z,13.50
2018-07-19T03:05:16.181Z,13.50
2018-07-19T03:07:44.569Z,13.40
2018-07-19T03:10:13.786Z,13.50
2018-07-19T03:12:41.969Z,13.50
2018-07-19T03:15:10.153Z,13.50
2018-07-19T03:17:38.315Z,13.40
2018-07-19T03:20:10.681Z,13.40
2018-07-19T03:22:38.901Z,13.40
2018-07-19T03:25:07.064Z,13.30
2018-07-19T03:27:39.843Z,13.30
2018-07-19T03:30:08.045Z,13.30
2018-07-19T03:32:36.211Z,13.20
2018-07-19T03:35:04.388Z,13.20
2018-07-19T03:37:49.002Z,13.10
2018-07-19T03:40:17.184Z,13.10
2018-07-19T03:45:55.231Z,13.10
2018-07-19T03:48:23.390Z,13.00
2018-07-19T03:50:55.077Z,13.00
2018-07-19T03:53:23.279Z,13.00
2018-07-19T03:55:51.481Z,13.00
2018-07-19T03:58:19.646Z,13.10
2018-07-19T04:01:02.211Z,13.10
2018-07-19T04:03:41.250Z,13.10
2018-07-19T04:06:14.678Z,13.10
2018-07-19T04:08:42.899Z,13.10
2018-07-19T04:11:12.057Z,13.10
2018-07-19T04:13:40.246Z,13.10
2018-07-19T04:16:16.014Z,13.10
2018-07-19T04:18:48.250Z,13.20
2018-07-19T04:21:16.443Z,13.20
2018-07-19T04:23:44.611Z,13.30
2018-07-19T04:26:16.683Z,13.30
2018-07-19T04:28:45.928Z,13.30
2018-07-19T04:31:18.085Z,13.30
2018-07-19T04:33:46.280Z,13.40
2018-07-19T04:36:14.516Z,13.40
2018-07-19T04:38:42.728Z,13.50
2018-07-19T04:41:10.915Z,13.50
2018-07-19T04:43:39.133Z,13.60
2018-07-19T04:46:07.389Z,13.70
2018-07-19T04:48:35.672Z,13.70
2018-07-19T04:51:03.843Z,13.70
2018-07-19T04:53:32.020Z,13.80
2018-07-19T04:56:00.282Z,13.90
2018-07-19T04:58:28.504Z,14.00
2018-07-19T05:00:56.903Z,14.10
2018-07-19T05:03:25.137Z,14.30
2018-07-19T05:05:53.314Z,14.60
2018-07-19T05:08:21.592Z,15.00
2018-07-19T05:10:49.904Z,15.50
2018-07-19T05:13:18.221Z,16.10
2018-07-19T05:15:46.430Z,16.60
2018-07-19T05:18:16.759Z,17.10
2018-07-19T05:20:44.968Z,17.40
2018-07-19T05:23:13.220Z,17.70
2018-07-19T05:25:41.760Z,18.00
2018-07-19T05:28:09.948Z,18.20
2018-07-19T05:30:38.164Z,18.40
2018-07-19T05:33:06.576Z,18.50
2018-07-19T05:35:34.863Z,18.60
2018-07-19T05:38:13.400Z,19.00
2018-07-19T05:40:41.738Z,19.20
2018-07-19T05:43:10.393Z,19.30
2018-07-19T05:45:38.679Z,19.20
2018-07-19T05:48:06.974Z,19.40
2018-07-19T05:50:36.043Z,19.70
2018-07-19T05:53:04.451Z,20.20
2018-07-19T05:55:32.700Z,20.50
2018-07-19T05:58:00.964Z,20.90
2018-07-19T06:00:29.210Z,21.00
2018-07-19T06:02:57.640Z,21.00
2018-07-19T06:05:26.083Z,21.30
2018-07-19T06:07:54.338Z,21.50
2018-07-19T06:10:22.665Z,21.70
2018-07-19T06:12:50.892Z,21.90
2018-07-19T06:15:19.094Z,21.80
2018-07-19T06:17:47.338Z,21.80
2018-07-19T06:20:15.568Z,21.80
2018-07-19T06:22:46.791Z,22.20
2018-07-19T06:25:27.261Z,22.00
2018-07-19T06:27:56.490Z,22.30
2018-07-19T06:30:24.767Z,22.50
2018-07-19T06:32:52.944Z,22.50
2018-07-19T06:35:21.203Z,22.60
2018-07-19T06:37:51.406Z,22.70
2018-07-19T06:40:19.632Z,23.20
2018-07-19T06:42:47.808Z,23.30
2018-07-19T06:45:15.995Z,22.90
2018-07-19T06:47:44.264Z,22.90
2018-07-19T06:50:12.516Z,23.10
2018-07-19T06:52:40.954Z,23.30
2018-07-19T06:55:09.246Z,23.30
2018-07-19T07:00:39.783Z,23.60
2018-07-19T07:03:07.963Z,23.50
2018-07-19T07:05:36.150Z,23.60
2018-07-19T07:08:04.432Z,23.80
2018-07-19T07:10:32.596Z,24.30
2018-07-19T07:13:00.905Z,24.30
2018-07-19T07:15:29.062Z,24.10
2018-07-19T07:17:57.319Z,24.20
2018-07-19T07:20:25.595Z,24.30
2018-07-19T07:25:21.876Z,24.40
2018-07-19T07:27:50.080Z,24.20
2018-07-19T07:30:18.324Z,24.30
2018-07-19T07:32:46.543Z,24.40
2018-07-19T07:35:14.791Z,24.40
2018-07-19T07:37:42.991Z,24.60
2018-07-19T07:40:11.216Z,24.60
2018-07-19T07:42:39.450Z,24.80
2018-07-19T07:45:07.745Z,24.90
2018-07-19T07:47:35.940Z,25.10
2018-07-19T07:50:04.224Z,24.90
2018-07-19T07:52:32.431Z,25.00
2018-07-19T07:55:00.639Z,25.00
2018-07-19T07:57:28.833Z,25.50
2018-07-19T07:59:57.121Z,26.00
2018-07-19T08:02:25.349Z,26.10
2018-07-19T08:04:53.545Z,26.30
2018-07-19T08:07:21.753Z,26.50
2018-07-19T08:09:49.967Z,26.50
2018-07-19T08:12:18.153Z,26.50
2018-07-19T08:14:46.357Z,26.20
2018-07-19T08:17:14.534Z,26.10
2018-07-19T08:19:42.708Z,25.90
2018-07-19T08:22:10.908Z,26.10
2018-07-19T08:24:39.172Z,26.00
2018-07-19T08:27:07.371Z,25.90
2018-07-19T08:29:35.550Z,25.90
2018-07-19T08:32:03.768Z,26.10
2018-07-19T08:34:32.043Z,26.20
2018-07-19T08:37:00.289Z,26.10
2018-07-19T08:39:28.504Z,26.40
2018-07-19T08:41:56.763Z,26.60
2018-07-19T08:44:25.017Z,26.60
2018-07-19T08:46:53.223Z,26.80
2018-07-19T08:49:21.424Z,27.00
2018-07-19T08:51:49.783Z,26.90
2018-07-19T08:54:18.008Z,26.60
2018-07-19T08:56:46.306Z,26.40
2018-07-19T08:59:14.804Z,26.40
2018-07-19T09:01:43.129Z,26.40
2018-07-19T09:09:08.660Z,26.40
2018-07-19T09:11:38.025Z,26.30
2018-07-19T09:14:06.311Z,26.10
2018-07-19T09:16:34.552Z,26.00
2018-07-19T09:19:02.701Z,26.20
2018-07-19T09:21:30.964Z,26.30
2018-07-19T09:23:59.414Z,26.60
2018-07-19T09:26:27.821Z,26.40
2018-07-19T09:28:55.980Z,26.40
2018-07-19T09:31:24.244Z,26.70
2018-07-19T09:33:52.523Z,26.80
2018-07-19T09:36:20.743Z,27.00
2018-07-19T09:38:48.964Z,27.90
2018-07-19T09:41:17.154Z,28.20
2018-07-19T09:43:45.316Z,28.10
2018-07-19T09:46:13.612Z,28.00
2018-07-19T09:48:41.797Z,27.90
2018-07-19T09:51:09.992Z,28.00
2018-07-19T09:53:38.219Z,28.40
2018-07-19T09:56:06.436Z,28.60
2018-07-19T09:58:34.585Z,28.60
2018-07-19T10:01:09.305Z,29.00
2018-07-19T10:03:37.596Z,29.30
2018-07-19T10:06:05.756Z,29.50
2018-07-19T10:08:34.042Z,28.90
2018-07-19T10:11:02.290Z,28.60
2018-07-19T10:13:31.963Z,28.40
2018-07-19T10:16:00.079Z,28.30
2018-07-19T10:18:28.295Z,28.50
2018-07-19T10:20:56.512Z,28.60
2018-07-19T10:23:25.082Z,29.20
2018-07-19T10:25:53.320Z,29.40
2018-07-19T10:28:21.616Z,28.80
2018-07-19T10:30:49.950Z,29.00
2018-07-19T10:33:18.184Z,28.60
2018-07-19T10:35:46.379Z,28.20
2018-07-19T10:38:14.606Z,27.90
2018-07-19T10:40:42.824Z,28.00
2018-07-19T10:43:11.064Z,28.00
2018-07-19T10:45:39.276Z,27.80
2018-07-19T10:48:07.507Z,27.90
2018-07-19T10:50:35.745Z,27.80
2018-07-19T10:53:04.019Z,27.70
2018-07-19T10:55:32.262Z,27.60
2018-07-19T10:58:00.541Z,27.40
2018-07-19T11:00:28.776Z,27.40
2018-07-19T11:02:57.100Z,27.60
2018-07-19T11:05:25.604Z,27.70
2018-07-19T11:07:53.868Z,27.70
2018-07-19T11:10:22.056Z,27.70
2018-07-19T11:12:50.355Z,27.30
2018-07-19T11:15:18.541Z,26.90
2018-07-19T11:17:47.737Z,26.90
2018-07-19T11:20:16.016Z,27.10
2018-07-19T11:22:44.257Z,27.10
2018-07-19T11:25:12.734Z,27.40
2018-07-19T11:27:40.942Z,27.00
2018-07-19T11:30:14.612Z,27.10
2018-07-19T11:32:42.816Z,27.30
2018-07-19T11:35:11.129Z,27.40
2018-07-19T11:37:39.387Z,27.60
2018-07-19T11:40:07.629Z,27.50
2018-07-19T11:42:35.904Z,27.30
2018-07-19T11:45:04.630Z,27.50
2018-07-19T11:47:32.827Z,27.60
2018-07-19T11:50:01.170Z,27.60
2018-07-19T11:52:29.420Z,27.60
2018-07-19T11:54:57.608Z,27.60
2018-07-19T11:57:25.787Z,27.50
2018-07-19T11:59:54.191Z,27.20
2018-07-19T12:02:22.613Z,27.20
2018-07-19T12:04:50.919Z,27.10
2018-07-19T12:07:19.216Z,26.80
2018-07-19T12:09:47.391Z,26.70
2018-07-19T12:12:16.231Z,26.90
2018-07-19T12:14:44.495Z,27.10
2018-07-19T12:17:12.841Z,27.10
2018-07-19T12:19:41.070Z,27.20
2018-07-19T12:22:09.387Z,27.30
2018-07-19T12:24:37.649Z,27.00
2018-07-19T12:27:05.829Z,27.10
2018-07-19T12:29:34.012Z,27.40
2018-07-19T12:32:02.168Z,27.50
2018-07-19T12:34:30.352Z,27.40
2018-07-19T12:36:58.570Z,27.40
2018-07-19T12:39:26.695Z,27.50
2018-07-19T12:41:54.870Z,27.70
2018-07-19T12:44:23.076Z,27.60
2018-07-19T12:46:51.247Z,27.70
2018-07-19T12:49:19.415Z,27.60
2018-07-19T12:51:47.608Z,27.60
2018-07-19T12:54:15.776Z,27.30
2018-07-19T12:56:43.957Z,27.20
2018-07-19T12:59:12.115Z,27.40
2018-07-19T13:01:40.319Z,27.70
2018-07-19T13:04:08.531Z,27.80
2018-07-19T13:06:36.753Z,27.80
2018-07-19T13:09:07.353Z,27.80
2018-07-19T13:11:35.795Z,27.60
2018-07-19T13:14:04.082Z,27.40
2018-07-19T13:16:32.293Z,27.40
2018-07-19T13:19:00.459Z,27.60
2018-07-19T13:21:28.645Z,27.80
2018-07-19T13:23:56.916Z,28.10
2018-07-19T13:26:25.208Z,28.00
2018-07-19T13:28:53.526Z,28.00
2018-07-19T13:31:21.703Z,27.90
2018-07-19T13:33:50.085Z,27.70
2018-07-19T13:36:18.461Z,27.90
2018-07-19T13:38:46.672Z,28.00
2018-07-19T13:41:15.103Z,28.00
2018-07-19T13:43:43.634Z,28.00
2018-07-19T13:46:12.388Z,28.10
2018-07-19T13:48:40.635Z,27.80
2018-07-19T13:53:48.115Z,27.50
2018-07-19T13:56:16.332Z,27.60
2018-07-19T13:58:44.523Z,27.60
2018-07-19T14:01:12.676Z,27.60
2018-07-19T14:03:41.035Z,27.60
2018-07-19T14:06:09.290Z,27.60
2018-07-19T14:08:37.535Z,27.50
2018-07-19T14:11:05.739Z,27.50
2018-07-19T14:13:33.980Z,27.60
2018-07-19T14:16:02.208Z,27.70
2018-07-19T14:18:30.452Z,27.80
2018-07-19T14:20:58.647Z,27.70
2018-07-19T14:23:26.818Z,27.80
2018-07-19T14:25:54.994Z,27.70
2018-07-19T14:28:23.166Z,27.80
2018-07-19T14:30:51.376Z,28.00
2018-07-19T14:33:19.576Z,28.00
2018-07-19T14:35:47.819Z,28.10
2018-07-19T14:38:16.151Z,28.20
2018-07-19T14:40:44.463Z,28.40
2018-07-19T14:43:12.651Z,28.40
2018-07-19T14:45:40.932Z,28.40
2018-07-19T14:48:09.359Z,28.20
2018-07-19T14:50:37.607Z,28.30
2018-07-19T14:53:05.824Z,28.50
2018-07-19T14:55:34.008Z,28.50
2018-07-19T14:58:02.236Z,28.40
2018-07-19T15:00:30.436Z,28.20
2018-07-19T15:02:58.654Z,28.10
2018-07-19T15:05:26.916Z,27.90
2018-07-19T15:07:56.342Z,28.00
2018-07-19T15:10:24.561Z,28.10
2018-07-19T15:15:20.678Z,28.10
2018-07-19T15:17:48.869Z,28.10
2018-07-19T15:20:17.023Z,28.10
2018-07-19T15:22:45.214Z,28.00
2018-07-19T15:25:13.423Z,28.10
2018-07-19T15:27:41.967Z,28.30
2018-07-19T15:30:10.164Z,28.30
2018-07-19T15:32:38.424Z,28.30
2018-07-19T15:35:06.672Z,28.30
2018-07-19T15:37:34.817Z,28.50
2018-07-19T15:40:03.000Z,28.50
2018-07-19T15:42:31.172Z,28.30
2018-07-19T15:44:59.441Z,28.30
2018-07-19T15:47:27.548Z,28.40
2018-07-19T15:49:55.695Z,28.30
2018-07-19T15:52:23.848Z,28.30
2018-07-19T15:54:52.047Z,28.20
2018-07-19T15:57:20.370Z,28.20
2018-07-19T15:59:48.608Z,28.20
2018-07-19T16:04:45.213Z,28.20
2018-07-19T16:07:13.712Z,28.10
2018-07-19T16:09:41.859Z,27.90
2018-07-19T16:12:10.029Z,27.90
2018-07-19T16:14:38.262Z,27.80
2018-07-19T16:17:06.657Z,27.80
2018-07-19T16:19:34.871Z,27.80
2018-07-19T16:22:03.047Z,27.70
2018-07-19T16:24:31.226Z,27.70
2018-07-19T16:26:59.428Z,27.70
2018-07-19T16:29:27.705Z,27.80
2018-07-19T16:31:55.925Z,27.90
2018-07-19T16:34:24.226Z,28.10
2018-07-19T16:36:52.634Z,27.90
2018-07-19T16:39:20.863Z,27.80
2018-07-19T16:41:49.277Z,27.90
2018-07-19T16:44:17.451Z,28.10
2018-07-19T16:46:45.633Z,28.20
2018-07-19T16:49:13.880Z,28.30
2018-07-19T16:51:42.107Z,28.40
2018-07-19T16:54:10.270Z,28.40
2018-07-19T16:56:38.480Z,28.30
2018-07-19T16:59:06.675Z,28.30
2018-07-19T17:01:34.916Z,28.40
2018-07-19T17:04:03.281Z,28.50
2018-07-19T17:06:31.632Z,28.40
2018-07-19T17:08:59.957Z,28.50
2018-07-19T17:11:28.171Z,28.50
2018-07-19T17:13:57.370Z,28.40
2018-07-19T17:16:25.561Z,28.30
2018-07-19T17:18:53.773Z,28.60
2018-07-19T17:21:21.992Z,28.90
2018-07-19T17:23:50.274Z,29.20
2018-07-19T17:26:18.656Z,29.90
2018-07-19T17:28:46.861Z,30.60
2018-07-19T17:31:15.055Z,31.70
2018-07-19T17:33:43.259Z,32.40
2018-07-19T17:36:18.733Z,32.50
2018-07-19T17:38:46.926Z,32.10
2018-07-19T17:41:15.123Z,31.50
2018-07-19T17:43:43.491Z,30.90
2018-07-19T17:46:11.639Z,30.40
2018-07-19T17:48:39.859Z,29.80
2018-07-19T17:51:08.195Z,29.50
2018-07-19T17:53:36.389Z,29.10
2018-07-19T17:56:04.580Z,28.80
2018-07-19T17:58:32.741Z,28.60
2018-07-19T18:01:00.890Z,28.50
2018-07-19T18:03:29.051Z,27.90
2018-07-19T18:05:57.216Z,27.50
2018-07-19T18:08:25.391Z,27.40
2018-07-19T18:10:54.077Z,27.50
2018-07-19T18:13:22.314Z,27.40
2018-07-19T18:15:50.503Z,27.20
2018-07-19T18:18:18.702Z,27.10
2018-07-19T18:20:46.952Z,27.10
2018-07-19T18:23:15.395Z,27.00
2018-07-19T18:25:43.567Z,26.80
2018-07-19T18:28:11.977Z,26.70
2018-07-19T18:30:40.389Z,26.60
2018-07-19T18:33:08.592Z,26.60
2018-07-19T18:35:36.836Z,26.50
2018-07-19T18:38:08.591Z,26.50
2018-07-19T18:40:36.784Z,26.30
2018-07-19T18:43:05.045Z,26.10
2018-07-19T18:45:33.520Z,25.80
2018-07-19T18:48:01.814Z,25.60
2018-07-19T18:50:36.596Z,25.40
2018-07-19T18:53:04.854Z,25.20
2018-07-19T18:55:33.040Z,25.10
2018-07-19T18:58:01.297Z,24.90
2018-07-19T19:00:29.456Z,24.80
2018-07-19T19:05:25.583Z,24.40
2018-07-19T19:07:53.792Z,24.30
2018-07-19T19:10:22.390Z,24.10
2018-07-19T19:12:50.729Z,23.90
2018-07-19T19:15:18.848Z,23.60
2018-07-19T19:17:49.085Z,23.40
2018-07-19T19:20:17.346Z,23.20
2018-07-19T19:22:45.531Z,23.00
2018-07-19T19:25:13.759Z,22.80
2018-07-19T19:27:41.955Z,22.60
2018-07-19T19:30:10.161Z,22.50
2018-07-19T19:32:38.537Z,22.30
2018-07-19T19:35:06.788Z,22.20
2018-07-19T19:37:35.157Z,22.00
2018-07-19T19:40:03.388Z,21.90
2018-07-19T19:44:59.557Z,21.70
2018-07-19T19:47:27.832Z,21.60
2018-07-19T19:49:56.132Z,21.50
2018-07-19T19:52:24.455Z,21.40
2018-07-19T19:54:52.661Z,21.30
2018-07-19T19:57:21.126Z,21.20
2018-07-19T19:59:49.284Z,21.00
2018-07-19T20:02:17.589Z,21.00
2018-07-19T20:04:45.828Z,20.90
2018-07-19T20:07:14.550Z,20.80
2018-07-19T20:09:42.748Z,20.70
2018-07-19T20:12:10.971Z,20.60
2018-07-19T20:14:39.272Z,20.50
2018-07-19T20:17:07.560Z,20.40
2018-07-19T20:19:35.801Z,20.30
2018-07-19T20:22:04.024Z,20.30
2018-07-19T20:24:32.908Z,20.20
2018-07-19T20:27:01.117Z,20.10
2018-07-19T20:29:29.417Z,20.00
2018-07-19T20:31:57.581Z,20.00
2018-07-19T20:34:26.545Z,19.90
2018-07-19T20:36:54.844Z,19.90
2018-07-19T20:39:23.805Z,19.80
2018-07-19T20:41:51.972Z,19.80
2018-07-19T20:44:20.179Z,19.70
2018-07-19T20:46:48.425Z,19.60
2018-07-19T20:49:16.652Z,19.60
2018-07-19T20:51:44.979Z,19.50
2018-07-19T20:54:13.159Z,19.40
2018-07-19T20:56:41.364Z,19.30
2018-07-19T20:59:09.546Z,19.20
2018-07-19T21:01:40.170Z,19.20
2018-07-19T21:04:08.486Z,19.10
2018-07-19T21:06:37.077Z,19.00
2018-07-19T21:09:08.413Z,18.90
2018-07-19T21:11:38.115Z,18.90
2018-07-19T21:14:08.039Z,18.80
2018-07-19T21:16:37.548Z,18.80
2018-07-19T21:19:06.809Z,18.70
2018-07-19T21:24:04.428Z,18.60
2018-07-19T21:26:38.156Z,18.60
2018-07-19T21:29:09.943Z,18.60
2018-07-19T21:31:40.601Z,18.50
2018-07-19T21:34:09.733Z,18.40
2018-07-19T21:36:37.956Z,18.30
2018-07-19T21:39:08.848Z,18.30
2018-07-19T21:41:40.470Z,18.20
2018-07-19T21:44:09.248Z,18.20
2018-07-19T21:46:37.496Z,18.10
2018-07-19T21:49:06.075Z,18.00
2018-07-19T21:51:34.423Z,18.00
2018-07-19T21:54:02.636Z,17.90
2018-07-19T21:56:31.115Z,17.90
2018-07-19T21:58:59.303Z,17.90
2018-07-19T22:01:27.500Z,17.80
2018-07-19T22:03:55.715Z,17.80
2018-07-19T22:06:24.935Z,17.70
2018-07-19T22:08:53.124Z,17.70
2018-07-19T22:11:21.881Z,17.60
2018-07-19T22:13:50.147Z,17.60
2018-07-19T22:16:18.409Z,17.60
2018-07-19T22:18:46.667Z,17.60
2018-07-19T22:21:14.805Z,17.50
2018-07-19T22:23:42.996Z,17.50
2018-07-19T22:26:11.237Z,17.40
2018-07-19T22:28:39.411Z,17.30
2018-07-19T22:31:07.655Z,17.30
2018-07-19T22:33:35.829Z,17.30
2018-07-19T22:36:04.088Z,17.20
2018-07-19T22:38:32.561Z,17.20
2018-07-19T22:41:00.992Z,17.10
2018-07-19T22:43:29.179Z,17.10
2018-07-19T22:45:57.391Z,17.10
2018-07-19T22:48:25.589Z,17.00
2018-07-19T22:50:54.104Z,17.00
2018-07-19T22:53:22.349Z,16.90
2018-07-19T22:55:50.569Z,16.90
2018-07-19T22:58:18.791Z,16.80
2018-07-19T23:00:47.437Z,16.80
2018-07-19T23:03:15.661Z,16.80
2018-07-19T23:05:43.848Z,16.70
2018-07-19T23:08:12.081Z,16.70
2018-07-19T23:10:40.268Z,16.60
2018-07-19T23:13:09.372Z,16.60
2018-07-19T23:15:37.540Z,16.60
2018-07-19T23:18:05.720Z,16.50
2018-07-19T23:20:33.882Z,16.50
2018-07-19T23:23:02.035Z,16.40
2018-07-19T23:25:30.197Z,16.40
2018-07-19T23:27:58.386Z,16.30
2018-07-19T23:30:29.875Z,16.20
2018-07-19T23:32:58.054Z,16.20
2018-07-19T23:35:30.142Z,16.10
2018-07-19T23:38:00.158Z,16.10
2018-07-19T23:40:30.985Z,16.10
2018-07-19T23:43:05.760Z,16.10
2018-07-19T23:45:41.221Z,16.00
2018-07-19T23:48:09.491Z,16.00
2018-07-19T23:50:37.700Z,16.00
2018-07-19T23:53:05.895Z,16.00
2018-07-19T23:55:34.447Z,15.90
2018-07-19T23:58:02.685Z,15.90
